Time;durP1;ratioP1;P1;durP2;ratioP2;P2;SDS_P1;SDS_P2;PMS_P1;PMS_P2;Temp;Humidity;BMP_temperature;BMP_pressure;BME280_temperature;BME280_humidity;BME280_pressure;Samples;Min_cycle;Max_cycle;Signal;HPM_P1;HPM_P2
2024/01/16 00:00:56;;;;;;;6.32;2.08;;;3.50;99.90;;;;;;5000000;28;20042;-62
2024/01/16 00:03:22;;;;;;;8.73;1.77;;;3.60;99.90;;;;;;4999846;28;20101;-62
2024/01/16 00:05:48;;;;;;;5.25;2.03;;;3.50;99.90;;;;;;4999882;28;20031;-62
2024/01/16 00:08:14;;;;;;;4.97;1.80;;;3.40;99.90;;;;;;4999812;28;20034;-61
2024/01/16 00:10:40;;;;;;;7.97;2.30;;;3.40;99.90;;;;;;4999713;28;20045;-61
2024/01/16 00:13:06;;;;;;;5.55;2.20;;;3.40;99.90;;;;;;4999718;28;20038;-63
2024/01/16 00:15:32;;;;;;;7.85;1.80;;;3.20;99.90;;;;;;4999585;28;20110;-62
2024/01/16 00:17:57;;;;;;;5.63;1.98;;;3.20;99.90;;;;;;4999748;28;20030;-62
2024/01/16 00:20:25;;;;;;;5.88;2.05;;;3.20;99.90;;;;;;4999629;28;20035;-63
2024/01/16 00:22:51;;;;;;;6.13;2.40;;;3.30;99.90;;;;;;4999583;28;20076;-64
2024/01/16 00:25:19;;;;;;;9.32;2.42;;;3.20;99.90;;;;;;4998864;28;20057;-61
2024/01/16 00:27:46;;;;;;;7.47;2.00;;;3.10;99.90;;;;;;4999387;28;20117;-62
2024/01/16 00:30:12;;;;;;;8.40;2.28;;;3.10;99.90;;;;;;4999458;28;20101;-61
2024/01/16 00:32:39;;;;;;;9.23;2.40;;;2.90;99.90;;;;;;4999194;28;20133;-61
2024/01/16 00:35:05;;;;;;;8.63;2.45;;;3.00;99.90;;;;;;4999301;28;20030;-62
2024/01/16 00:37:31;;;;;;;5.53;2.03;;;2.90;99.90;;;;;;4999266;28;20026;-63
2024/01/16 00:39:57;;;;;;;8.50;2.25;;;3.00;99.90;;;;;;4998525;28;20037;-63
2024/01/16 00:42:22;;;;;;;7.93;2.00;;;3.00;99.90;;;;;;4998494;28;20040;-61
2024/01/16 00:44:48;;;;;;;5.82;1.83;;;3.10;99.90;;;;;;4999089;28;20468;-60
2024/01/16 00:47:14;;;;;;;7.40;1.83;;;3.00;99.90;;;;;;4997268;28;20244;-59
2024/01/16 00:49:40;;;;;;;10.73;2.20;;;3.00;99.90;;;;;;4998986;28;20045;-62
2024/01/16 00:52:06;;;;;;;6.97;2.20;;;3.00;99.90;;;;;;4998310;28;20030;-63
2024/01/16 00:54:32;;;;;;;7.03;1.75;;;2.90;99.90;;;;;;4998774;28;20096;-64
2024/01/16 00:56:59;;;;;;;7.57;2.78;;;2.90;99.90;;;;;;4999081;28;20038;-61
2024/01/16 00:59:26;;;;;;;4.63;1.77;;;3.00;99.90;;;;;;4998836;28;20031;-61
2024/01/16 01:01:52;;;;;;;8.48;2.13;;;3.00;99.90;;;;;;4998335;28;20018;-61
2024/01/16 01:04:17;;;;;;;8.45;2.20;;;3.00;99.90;;;;;;4998672;28;20030;-61
2024/01/16 01:06:43;;;;;;;8.85;2.15;;;3.00;99.90;;;;;;4998210;28;20112;-63
2024/01/16 01:09:11;;;;;;;10.30;2.22;;;2.90;99.90;;;;;;4997962;28;20404;-62
2024/01/16 01:11:38;;;;;;;8.88;2.05;;;2.90;99.90;;;;;;4997943;28;20096;-63
2024/01/16 01:14:04;;;;;;;7.60;2.05;;;2.80;99.90;;;;;;4998525;28;20121;-61
2024/01/16 01:16:30;;;;;;;6.82;2.42;;;2.80;99.90;;;;;;4998386;28;20114;-63
2024/01/16 01:18:56;;;;;;;10.57;2.08;;;2.80;99.90;;;;;;4998492;28;20031;-66
2024/01/16 01:21:22;;;;;;;7.30;2.00;;;2.80;99.90;;;;;;4998445;28;20421;-60
2024/01/16 01:23:48;;;;;;;9.77;2.05;;;2.70;99.90;;;;;;4998310;28;20042;-62
2024/01/16 01:26:14;;;;;;;8.70;1.63;;;2.70;99.90;;;;;;4997526;28;20030;-62
2024/01/16 01:28:40;;;;;;;4.53;1.55;;;2.50;99.90;;;;;;4998275;28;20298;-61
2024/01/16 01:31:09;;;;;;;7.88;1.67;;;2.50;99.90;;;;;;4997309;28;20311;-63
2024/01/16 01:33:35;;;;;;;7.00;1.98;;;2.60;99.90;;;;;;4998182;28;20298;-62
2024/01/16 01:36:01;;;;;;;5.93;1.70;;;2.60;99.90;;;;;;4997263;28;20101;-63
2024/01/16 01:38:26;;;;;;;3.17;1.50;;;2.50;99.90;;;;;;4998347;28;20389;-63
2024/01/16 01:40:52;;;;;;;8.82;2.08;;;2.40;99.90;;;;;;4998312;28;20027;-62
2024/01/16 01:43:22;;;;;;;7.85;1.73;;;2.30;99.90;;;;;;4998011;28;20073;-63
2024/01/16 01:46:02;;;;;;;7.15;1.80;;;2.30;99.90;;;;;;4998030;28;20117;-62
2024/01/16 01:48:28;;;;;;;10.18;1.88;;;2.30;99.90;;;;;;4998027;28;20053;-61
2024/01/16 01:50:54;;;;;;;4.93;1.83;;;2.20;99.90;;;;;;4997249;28;20271;-62
2024/01/16 01:53:20;;;;;;;9.93;2.25;;;2.00;99.90;;;;;;4997875;28;20039;-61
2024/01/16 01:55:46;;;;;;;11.65;2.40;;;2.00;99.90;;;;;;4997977;28;20402;-62
2024/01/16 01:58:12;;;;;;;8.20;2.67;;;1.90;99.90;;;;;;4997485;28;20034;-61
2024/01/16 02:00:38;;;;;;;5.15;1.88;;;1.80;99.90;;;;;;4997772;28;20026;-60
2024/01/16 02:03:05;;;;;;;6.63;2.28;;;1.70;99.90;;;;;;4996980;28;20097;-60
2024/01/16 02:05:31;;;;;;;10.93;2.65;;;1.60;99.90;;;;;;4997746;28;20045;-63
2024/01/16 02:07:58;;;;;;;8.27;2.50;;;1.60;99.90;;;;;;4997607;28;20046;-60
2024/01/16 02:10:24;;;;;;;6.85;2.33;;;1.50;99.90;;;;;;4996945;28;20066;-61
2024/01/16 02:12:50;;;;;;;12.32;2.63;;;1.50;99.90;;;;;;4996964;28;20349;-61
2024/01/16 02:15:16;;;;;;;6.57;2.25;;;1.50;99.90;;;;;;4997531;28;20141;-61
2024/01/16 02:17:42;;;;;;;4.65;2.20;;;1.50;99.90;;;;;;4997545;28;20039;-61
2024/01/16 02:20:08;;;;;;;3.88;2.25;;;1.50;99.90;;;;;;4997534;28;20401;-61
2024/01/16 02:22:37;;;;;;;10.00;2.35;;;1.40;99.90;;;;;;4997502;28;20114;-61
2024/01/16 02:25:03;;;;;;;5.75;2.22;;;1.40;99.90;;;;;;4996805;28;20114;-60
2024/01/16 02:27:29;;;;;;;8.25;2.33;;;1.30;99.90;;;;;;4996754;28;20047;-60
2024/01/16 02:29:54;;;;;;;6.65;2.55;;;1.20;99.90;;;;;;4996590;28;20045;-59
2024/01/16 02:32:20;;;;;;;9.40;2.67;;;1.20;99.90;;;;;;4997210;28;20046;-62
2024/01/16 02:34:46;;;;;;;3.40;2.00;;;1.20;99.90;;;;;;4997321;28;20197;-60
2024/01/16 02:37:12;;;;;;;4.85;2.10;;;1.40;99.90;;;;;;4997403;28;20321;-61
2024/01/16 02:39:37;;;;;;;6.32;2.20;;;1.40;99.90;;;;;;4997293;28;20026;-60
2024/01/16 02:42:03;;;;;;;7.88;2.50;;;1.30;99.90;;;;;;4996548;28;20030;-60
2024/01/16 02:44:29;;;;;;;7.03;2.80;;;1.30;99.90;;;;;;4997255;28;20409;-60
2024/01/16 02:46:55;;;;;;;6.70;2.42;;;1.20;99.90;;;;;;4996436;28;20150;-60
2024/01/16 02:49:21;;;;;;;8.13;2.50;;;1.30;99.90;;;;;;4997185;28;20030;-59
2024/01/16 02:51:47;;;;;;;4.38;2.05;;;1.20;99.90;;;;;;4996528;28;20038;-60
2024/01/16 02:54:12;;;;;;;6.75;2.90;;;1.20;99.90;;;;;;4997046;28;20026;-60
2024/01/16 02:56:38;;;;;;;8.27;1.98;;;1.20;99.90;;;;;;4997190;28;20035;-61
2024/01/16 02:59:04;;;;;;;5.97;2.40;;;1.40;99.90;;;;;;4997229;28;20049;-60
2024/01/16 03:01:30;;;;;;;11.90;2.95;;;1.30;99.90;;;;;;4997163;28;20039;-63
2024/01/16 03:03:55;;;;;;;7.60;2.45;;;1.40;99.90;;;;;;4997135;28;20034;-63
2024/01/16 03:06:24;;;;;;;6.70;2.60;;;1.40;99.90;;;;;;4997103;28;20042;-62
2024/01/16 03:08:51;;;;;;;8.00;2.22;;;1.30;99.90;;;;;;4997045;28;20034;-61
2024/01/16 03:11:17;;;;;;;7.22;2.67;;;1.40;99.90;;;;;;4999313;28;20073;-60
2024/01/16 03:13:43;;;;;;;4.20;2.10;;;1.30;99.90;;;;;;5000788;28;20406;-60
2024/01/16 03:16:10;;;;;;;6.43;2.20;;;1.30;99.90;;;;;;5000771;28;20045;-61
2024/01/16 03:18:37;;;;;;;8.60;2.22;;;1.30;99.90;;;;;;5000645;28;20037;-61
2024/01/16 03:21:05;;;;;;;5.00;2.25;;;1.20;99.90;;;;;;5000720;28;20294;-60
2024/01/16 03:23:31;;;;;;;8.43;2.08;;;1.30;99.90;;;;;;5000557;28;20353;-61
2024/01/16 03:25:57;;;;;;;7.75;2.30;;;1.20;99.90;;;;;;5000597;28;20038;-61
2024/01/16 03:28:23;;;;;;;6.32;2.22;;;1.20;99.90;;;;;;5000567;28;20057;-60
2024/01/16 03:30:48;;;;;;;8.82;2.30;;;1.20;99.90;;;;;;4999636;28;20044;-61
2024/01/16 03:33:14;;;;;;;7.35;2.25;;;1.20;99.90;;;;;;5000466;28;20045;-59
2024/01/16 03:35:40;;;;;;;8.20;2.20;;;1.10;99.90;;;;;;5000342;28;20037;-60
2024/01/16 03:38:06;;;;;;;6.82;2.45;;;1.10;99.90;;;;;;5000557;28;20065;-59
2024/01/16 03:40:34;;;;;;;4.85;2.00;;;1.00;99.90;;;;;;5000336;28;20378;-61
2024/01/16 03:43:01;;;;;;;6.53;2.50;;;0.90;99.90;;;;;;5000253;28;20022;-61
2024/01/16 03:45:27;;;;;;;4.25;1.90;;;0.90;99.90;;;;;;4999633;28;20309;-61
2024/01/16 03:47:53;;;;;;;9.40;2.15;;;1.00;99.90;;;;;;5000391;28;20341;-61
2024/01/16 03:50:19;;;;;;;4.78;1.98;;;1.00;99.90;;;;;;5000144;28;20096;-61
2024/01/16 03:52:45;;;;;;;6.70;2.40;;;1.10;99.90;;;;;;5000139;28;20039;-60
2024/01/16 03:55:11;;;;;;;7.00;2.05;;;1.00;99.90;;;;;;4983180;28;20050;-60
2024/01/16 03:57:37;;;;;;;5.45;1.83;;;0.80;99.90;;;;;;5000030;28;20301;-60
2024/01/16 04:00:05;;;;;;;6.78;2.47;;;0.60;99.90;;;;;;4983175;28;20030;-60
2024/01/16 04:02:31;;;;;;;6.22;1.88;;;0.70;99.90;;;;;;5000044;28;20038;-60
2024/01/16 04:04:57;;;;;;;5.85;2.20;;;0.70;99.90;;;;;;4999901;28;20350;-61
2024/01/16 04:07:26;;;;;;;6.93;2.42;;;0.70;99.90;;;;;;4999872;28;20133;-62
2024/01/16 04:09:52;;;;;;;6.93;2.03;;;0.60;99.90;;;;;;4999827;28;20037;-61
2024/01/16 04:12:17;;;;;;;6.97;2.80;;;0.60;99.90;;;;;;4999112;28;20034;-62
2024/01/16 04:14:43;;;;;;;4.93;2.22;;;0.70;99.90;;;;;;4999838;28;20053;-60
2024/01/16 04:17:09;;;;;;;9.15;2.30;;;0.80;99.90;;;;;;4999809;28;20026;-61
2024/01/16 04:19:35;;;;;;;6.30;2.03;;;0.80;99.90;;;;;;4999604;28;20030;-58
2024/01/16 04:22:01;;;;;;;6.55;1.98;;;0.70;99.90;;;;;;4998651;28;20038;-60
2024/01/16 04:24:27;;;;;;;7.07;2.30;;;0.80;99.90;;;;;;4998886;28;20410;-59
2024/01/16 04:26:54;;;;;;;4.57;1.80;;;0.70;99.90;;;;;;4998897;28;20172;-59
2024/01/16 04:29:19;;;;;;;5.65;2.25;;;0.60;99.90;;;;;;4999552;28;20041;-59
2024/01/16 04:31:45;;;;;;;6.82;2.03;;;0.60;99.90;;;;;;4999529;28;20058;-60
2024/01/16 04:34:11;;;;;;;5.82;2.13;;;0.60;99.90;;;;;;4999397;28;20297;-60
2024/01/16 04:36:37;;;;;;;6.38;1.95;;;0.60;99.90;;;;;;4999268;28;20038;-60
2024/01/16 04:39:03;;;;;;;3.97;1.77;;;0.60;99.90;;;;;;4999202;28;20026;-59
2024/01/16 04:41:29;;;;;;;6.43;1.88;;;0.60;99.90;;;;;;4999213;28;20101;-60
2024/01/16 04:43:55;;;;;;;7.53;2.20;;;0.50;99.90;;;;;;4999178;28;20030;-59
2024/01/16 04:46:21;;;;;;;6.93;2.15;;;0.50;99.90;;;;;;4999153;28;20034;-58
2024/01/16 04:48:47;;;;;;;5.45;2.10;;;0.40;99.90;;;;;;4998493;28;20114;-62
2024/01/16 04:51:13;;;;;;;8.00;2.10;;;0.40;99.90;;;;;;5014587;28;20038;-59
2024/01/16 04:53:40;;;;;;;6.28;2.22;;;0.40;99.90;;;;;;4998898;28;20100;-60
2024/01/16 04:56:06;;;;;;;11.38;2.53;;;0.40;99.90;;;;;;4998840;28;20050;-60
2024/01/16 04:58:32;;;;;;;7.22;2.53;;;0.40;99.90;;;;;;4998785;28;20026;-60
2024/01/16 05:00:58;;;;;;;6.20;2.03;;;0.40;99.90;;;;;;4998929;28;20042;-60
2024/01/16 05:03:24;;;;;;;8.82;2.42;;;0.50;99.90;;;;;;4998013;28;20030;-60
2024/01/16 05:05:50;;;;;;;6.07;2.13;;;0.50;99.90;;;;;;4998740;28;20038;-60
2024/01/16 05:08:15;;;;;;;4.65;1.90;;;0.40;99.90;;;;;;4998684;28;20400;-60
2024/01/16 05:10:42;;;;;;;8.50;2.15;;;0.40;99.90;;;;;;4998650;28;20045;-59
2024/01/16 05:13:07;;;;;;;7.50;2.35;;;0.40;99.90;;;;;;4997882;28;20160;-60
2024/01/16 05:15:33;;;;;;;3.83;1.92;;;0.30;99.90;;;;;;4998396;28;20117;-60
2024/01/16 05:17:59;;;;;;;7.60;2.35;;;0.30;99.90;;;;;;4998510;28;20040;-61
2024/01/16 05:20:25;;;;;;;5.97;2.53;;;0.40;99.90;;;;;;4998408;28;20073;-60
2024/01/16 05:22:51;;;;;;;8.70;2.15;;;0.30;99.90;;;;;;4997659;28;20032;-61
2024/01/16 05:25:17;;;;;;;7.25;2.55;;;0.30;99.90;;;;;;4998331;28;20030;-59
2024/01/16 05:27:43;;;;;;;6.00;2.42;;;0.20;99.90;;;;;;4998373;28;20065;-60
2024/01/16 05:30:10;;;;;;;7.07;1.92;;;0.20;99.90;;;;;;4998239;28;20065;-59
2024/01/16 05:32:36;;;;;;;7.38;1.85;;;0.10;99.90;;;;;;4997498;28;20046;-60
2024/01/16 05:35:02;;;;;;;4.97;2.10;;;0.10;99.90;;;;;;4997399;28;20035;-59
2024/01/16 05:37:29;;;;;;;8.43;2.50;;;0.10;99.90;;;;;;4981292;28;20429;-58
2024/01/16 05:39:55;;;;;;;5.43;2.35;;;0.10;99.90;;;;;;4998013;28;20109;-60
2024/01/16 05:42:21;;;;;;;5.78;2.25;;;0.10;99.90;;;;;;4997194;28;20062;-58
2024/01/16 05:44:47;;;;;;;6.50;1.77;;;0.20;99.90;;;;;;4998004;28;20037;-63
2024/01/16 05:47:12;;;;;;;7.40;2.45;;;0.20;99.90;;;;;;4997193;28;20298;-59
2024/01/16 05:49:39;;;;;;;6.88;2.28;;;0.20;99.90;;;;;;4998075;28;20119;-59
2024/01/16 05:52:04;;;;;;;6.05;2.17;;;0.10;99.90;;;;;;4997127;28;20026;-60
2024/01/16 05:54:30;;;;;;;7.78;1.90;;;0.10;99.90;;;;;;4997770;28;20041;-59
2024/01/16 05:56:56;;;;;;;5.63;2.25;;;0.10;99.90;;;;;;4997803;28;20066;-59
2024/01/16 05:59:22;;;;;;;6.30;2.35;;;0.10;99.90;;;;;;4997091;28;20041;-59
2024/01/16 06:01:49;;;;;;;5.45;2.30;;;0.20;99.90;;;;;;4997750;28;20086;-59
2024/01/16 06:04:15;;;;;;;5.88;2.20;;;0.20;99.90;;;;;;4997637;28;20026;-59
2024/01/16 06:06:45;;;;;;;3.53;2.05;;;0.20;99.90;;;;;;4997719;28;20030;-59
2024/01/16 06:09:14;;;;;;;7.28;2.20;;;0.20;99.90;;;;;;4997614;28;20038;-62
2024/01/16 06:11:43;;;;;;;5.32;1.77;;;0.20;99.90;;;;;;4981530;28;20038;-60
2024/01/16 06:14:09;;;;;;;5.55;2.35;;;0.20;99.90;;;;;;4997889;28;20286;-61
2024/01/16 06:16:35;;;;;;;3.97;1.92;;;0.20;99.90;;;;;;4997499;28;20030;-59
2024/01/16 06:19:02;;;;;;;4.22;1.70;;;0.20;99.90;;;;;;4996800;28;20448;-60
2024/01/16 06:21:27;;;;;;;8.40;2.28;;;0.20;99.90;;;;;;4997562;28;20057;-60
2024/01/16 06:23:53;;;;;;;5.03;2.40;;;0.10;99.90;;;;;;4996692;28;20062;-60
2024/01/16 06:26:19;;;;;;;6.07;1.70;;;0.20;99.90;;;;;;4997580;28;20040;-61
2024/01/16 06:28:45;;;;;;;3.78;2.05;;;0.20;99.90;;;;;;4997638;28;20056;-61
2024/01/16 06:31:11;;;;;;;8.77;2.58;;;0.30;99.90;;;;;;4996615;28;20477;-60
2024/01/16 06:33:37;;;;;;;6.32;2.17;;;0.30;99.90;;;;;;4996753;28;20046;-60
2024/01/16 06:36:06;;;;;;;7.13;2.00;;;0.40;99.90;;;;;;4997367;28;20030;-59
2024/01/16 06:38:32;;;;;;;8.10;2.33;;;0.40;99.90;;;;;;4997391;28;20033;-60
2024/01/16 06:40:58;;;;;;;5.78;2.10;;;0.40;99.90;;;;;;4997651;28;20030;-60
2024/01/16 06:43:24;;;;;;;6.22;2.00;;;0.30;99.90;;;;;;4996800;28;20110;-62
2024/01/16 06:45:50;;;;;;;7.53;1.95;;;0.40;99.90;;;;;;5001279;28;20173;-60
2024/01/16 06:48:16;;;;;;;6.38;2.10;;;0.40;99.90;;;;;;5000660;28;20054;-60
2024/01/16 06:50:42;;;;;;;7.07;2.40;;;0.60;99.90;;;;;;5000445;28;20401;-60
2024/01/16 06:53:07;;;;;;;6.43;2.42;;;0.70;95.20;;;;;;5001119;28;20452;-58
2024/01/16 06:55:33;;;;;;;5.55;2.30;;;0.50;90.40;;;;;;5001101;28;20026;-60
2024/01/16 06:57:59;;;;;;;4.45;1.55;;;0.40;92.20;;;;;;5000982;28;20035;-60
2024/01/16 07:00:26;;;;;;;7.00;2.40;;;0.30;93.70;;;;;;5000998;28;20042;-59
2024/01/16 07:02:55;;;;;;;6.82;2.40;;;0.30;96.00;;;;;;5001068;28;20045;-60
2024/01/16 07:05:21;;;;;;;4.85;2.20;;;0.40;97.90;;;;;;5000944;28;20102;-60
2024/01/16 07:07:47;;;;;;;8.93;2.45;;;0.50;96.00;;;;;;5000894;28;20405;-59
2024/01/16 07:10:18;;;;;;;6.50;2.17;;;0.70;89.40;;;;;;5000781;28;20298;-59
2024/01/16 07:12:47;;;;;;;3.55;1.80;;;0.50;80.00;;;;;;5001080;28;20042;-59
2024/01/16 07:15:13;;;;;;;4.18;2.10;;;0.50;84.70;;;;;;4999994;28;20031;-60
2024/01/16 07:17:39;;;;;;;3.88;1.90;;;0.50;89.60;;;;;;5016423;28;20031;-59
2024/01/16 07:20:05;;;;;;;8.73;2.00;;;0.70;86.50;;;;;;5000702;28;20022;-60
2024/01/16 07:22:31;;;;;;;7.97;2.10;;;0.70;70.90;;;;;;4999980;28;20081;-59
2024/01/16 07:24:57;;;;;;;4.35;2.22;;;0.80;67.30;;;;;;5000630;28;20062;-61
2024/01/16 07:27:23;;;;;;;2.50;1.58;;;0.90;59.00;;;;;;4999781;28;20317;-59
2024/01/16 07:29:49;;;;;;;5.68;2.15;;;1.70;99.90;;;;;;5000566;28;20045;-59
2024/01/16 07:32:14;;;;;;;4.38;1.80;;;1.90;14.80;;;;;;5000397;28;20046;-59
2024/01/16 07:34:40;;;;;;;8.65;2.10;;;1.70;11.80;;;;;;5000551;28;20042;-58
2024/01/16 07:37:06;;;;;;;6.63;2.10;;;1.50;18.00;;;;;;4999943;28;20455;-58
2024/01/16 07:39:32;;;;;;;7.53;2.20;;;1.40;14.80;;;;;;5000405;28;20238;-59
2024/01/16 07:41:57;;;;;;;9.52;2.85;;;1.40;20.70;;;;;;5000252;28;20073;-58
2024/01/16 07:44:24;;;;;;;6.05;2.13;;;1.20;22.90;;;;;;5000303;28;20306;-59
2024/01/16 07:46:50;;;;;;;5.47;2.20;;;1.20;30.40;;;;;;5000490;28;20027;-59
2024/01/16 07:49:16;;;;;;;3.42;1.88;;;1.20;27.10;;;;;;5000230;28;20034;-57
2024/01/16 07:51:42;;;;;;;7.60;2.30;;;1.10;27.50;;;;;;4999478;28;20081;-58
2024/01/16 07:54:10;;;;;;;7.97;2.40;;;1.10;37.40;;;;;;5000169;28;20030;-58
2024/01/16 07:56:37;;;;;;;3.13;1.80;;;1.20;38.50;;;;;;4999358;28;20041;-57
2024/01/16 07:59:03;;;;;;;6.47;2.30;;;1.10;24.80;;;;;;4983030;28;20042;-58
2024/01/16 08:01:29;;;;;;;4.25;1.80;;;1.00;30.50;;;;;;4999767;28;20022;-57
2024/01/16 08:03:55;;;;;;;8.25;2.60;;;0.80;36.20;;;;;;4999074;28;20030;-58
2024/01/16 08:06:22;;;;;;;5.47;2.13;;;0.90;47.40;;;;;;4999083;28;20034;-59
2024/01/16 08:08:49;;;;;;;4.32;1.58;;;1.00;43.10;;;;;;4999839;28;20026;-58
2024/01/16 08:11:16;;;;;;;6.18;2.20;;;1.20;36.40;;;;;;4999779;28;20298;-57
2024/01/16 08:13:42;;;;;;;5.97;2.60;;;1.20;17.70;;;;;;4999075;28;20034;-58
2024/01/16 08:16:07;;;;;;;6.15;2.40;;;1.20;16.00;;;;;;4999736;28;20060;-58
2024/01/16 08:18:34;;;;;;;3.88;2.17;;;1.10;21.90;;;;;;4999710;28;20041;-58
2024/01/16 08:21:00;;;;;;;5.65;1.90;;;1.20;23.80;;;;;;4999627;28;20030;-59
2024/01/16 08:23:26;;;;;;;3.08;1.85;;;1.30;18.30;;;;;;4998888;28;20027;-58
2024/01/16 08:25:51;;;;;;;5.35;1.90;;;1.20;22.70;;;;;;4999496;28;20041;-58
2024/01/16 08:28:18;;;;;;;4.00;2.08;;;1.10;16.30;;;;;;4999459;28;20460;-58
2024/01/16 08:30:44;;;;;;;4.45;2.08;;;1.00;24.10;;;;;;4998657;28;20309;-59
2024/01/16 08:33:12;;;;;;;3.92;2.15;;;1.10;22.10;;;;;;4998659;28;20049;-58
2024/01/16 08:35:38;;;;;;;7.80;2.05;;;1.20;18.90;;;;;;4999225;28;20044;-57
2024/01/16 08:38:04;;;;;;;4.85;2.30;;;0.90;20.30;;;;;;4982520;28;20026;-57
2024/01/16 08:40:30;;;;;;;2.85;2.08;;;0.70;26.10;;;;;;4998570;28;20043;-57
2024/01/16 08:42:56;;;;;;;3.60;2.25;;;0.70;37.20;;;;;;4999212;28;20085;-57
2024/01/16 08:45:22;;;;;;;5.05;2.35;;;0.70;44.10;;;;;;4999182;28;20034;-57
2024/01/16 08:47:49;;;;;;;4.80;2.47;;;0.60;49.60;;;;;;4998256;28;20376;-58
2024/01/16 08:50:15;;;;;;;8.75;2.50;;;0.70;41.70;;;;;;4999232;28;20031;-57
2024/01/16 08:52:41;;;;;;;8.60;2.38;;;0.70;43.30;;;;;;4999414;28;20447;-57
2024/01/16 08:55:11;;;;;;;6.05;2.53;;;0.80;40.40;;;;;;4998450;28;20121;-58
2024/01/16 08:57:38;;;;;;;8.15;2.08;;;1.00;44.00;;;;;;4998095;28;20141;-58
2024/01/16 09:00:05;;;;;;;7.65;2.20;;;1.00;23.40;;;;;;4998137;28;20046;-58
2024/01/16 09:02:31;;;;;;;5.82;2.10;;;1.00;19.40;;;;;;4998815;28;20088;-58
2024/01/16 09:04:58;;;;;;;7.00;2.40;;;1.00;17.40;;;;;;4998801;28;20034;-58
2024/01/16 09:07:25;;;;;;;3.63;2.20;;;1.10;1.00;;;;;;4997783;28;20034;-58
2024/01/16 09:09:51;;;;;;;5.05;2.33;;;1.20;1.00;;;;;;4998651;28;20041;-58
2024/01/16 09:12:17;;;;;;;5.20;2.15;;;1.30;1.00;;;;;;4998673;28;20313;-57
2024/01/16 09:14:43;;;;;;;4.13;2.28;;;1.20;1.00;;;;;;4998578;28;20413;-57
2024/01/16 09:17:09;;;;;;;6.57;2.42;;;1.00;1.00;;;;;;4997832;28;20345;-57
2024/01/16 09:19:35;;;;;;;5.80;2.40;;;1.00;1.00;;;;;;4998527;28;20026;-57
2024/01/16 09:22:02;;;;;;;4.65;2.25;;;1.00;1.00;;;;;;4998455;28;20026;-56
2024/01/16 09:24:28;;;;;;;8.90;2.50;;;1.00;1.00;;;;;;4998371;28;20337;-56
2024/01/16 09:26:54;;;;;;;7.15;2.17;;;1.00;1.00;;;;;;4997633;28;20030;-57
2024/01/16 09:29:22;;;;;;;5.85;2.20;;;0.90;1.00;;;;;;4998360;28;20086;-56
2024/01/16 09:31:48;;;;;;;4.82;2.08;;;1.10;1.00;;;;;;4997387;28;20062;-58
2024/01/16 09:34:14;;;;;;;5.35;2.40;;;1.10;1.00;;;;;;4998154;28;20059;-57
2024/01/16 09:36:40;;;;;;;4.53;2.53;;;1.00;1.00;;;;;;4997440;28;20057;-57
2024/01/16 09:39:16;;;;;;;7.53;2.38;;;1.00;1.00;;;;;;4981167;28;20306;-57
2024/01/16 09:41:42;;;;;;;8.23;2.55;;;1.00;1.00;;;;;;4998158;28;20033;-57
2024/01/16 09:44:08;;;;;;;6.15;2.50;;;0.90;1.00;;;;;;4998031;28;20022;-57
2024/01/16 09:46:37;;;;;;;5.82;2.20;;;1.00;1.00;;;;;;4998137;28;20390;-56
2024/01/16 09:49:03;;;;;;;5.75;2.47;;;1.00;1.00;;;;;;4998057;28;20357;-57
2024/01/16 09:51:29;;;;;;;3.83;2.40;;;1.00;1.00;;;;;;5013513;28;20044;-56
2024/01/16 09:53:56;;;;;;;8.77;2.65;;;1.00;1.00;;;;;;4997387;28;20058;-58
2024/01/16 09:56:26;;;;;;;5.60;2.70;;;1.00;1.00;;;;;;4997742;28;20105;-58
2024/01/16 09:58:58;;;;;;;7.38;2.47;;;1.10;1.00;;;;;;4997798;28;20382;-58
2024/01/16 10:01:28;;;;;;;4.80;2.50;;;1.30;1.00;;;;;;4997861;28;20045;-58
2024/01/16 10:03:53;;;;;;;6.55;2.45;;;1.30;1.00;;;;;;4997107;28;20034;-59
2024/01/16 10:06:20;;;;;;;5.80;2.70;;;1.50;1.00;;;;;;4997750;28;20038;-59
2024/01/16 10:08:46;;;;;;;5.35;2.65;;;1.80;1.00;;;;;;5013336;28;20092;-59
2024/01/16 10:11:12;;;;;;;6.97;3.05;;;2.50;1.00;;;;;;4996896;28;20058;-58
2024/01/16 10:13:38;;;;;;;4.18;2.67;;;2.50;1.00;;;;;;4997533;28;20045;-58
2024/01/16 10:16:04;;;;;;;7.78;2.70;;;2.70;1.00;;;;;;4997679;28;20030;-60
2024/01/16 10:18:30;;;;;;;7.72;2.60;;;2.60;1.00;;;;;;4997253;28;20027;-58
2024/01/16 10:20:56;;;;;;;5.70;2.55;;;2.60;1.00;;;;;;4996973;28;20416;-58
2024/01/16 10:23:27;;;;;;;2.33;1.90;;;2.70;1.00;;;;;;4996873;28;20023;-59
2024/01/16 10:26:06;;;;;;;3.83;2.28;;;3.00;99.90;;;;;;4997554;28;20397;-56
2024/01/16 10:28:34;;;;;;;3.58;2.13;;;3.10;99.90;;;;;;4980754;28;20049;-59
2024/01/16 10:31:05;;;;;;;4.95;2.20;;;3.40;1.00;;;;;;5012797;28;20108;-59
2024/01/16 10:33:31;;;;;;;4.00;2.20;;;3.80;1.00;;;;;;4997456;28;20125;-59
2024/01/16 10:36:10;;;;;;;3.30;1.95;;;4.30;1.00;;;;;;4996741;28;20030;-58
2024/01/16 10:38:39;;;;;;;7.70;2.03;;;4.50;1.00;;;;;;4997294;28;20034;-58
2024/01/16 10:41:12;;;;;;;5.38;2.63;;;4.80;1.00;;;;;;4997562;28;20113;-58
2024/01/16 10:43:38;;;;;;;;;;;5.50;99.90;;;;;;4997734;28;20042;-58
2024/01/16 10:46:14;;;;;;;6.22;2.35;;;5.70;1.00;;;;;;4997337;28;19910;-59
2024/01/16 10:48:42;;;;;;;8.43;2.20;;;5.60;1.00;;;;;;4996822;28;20350;-58
2024/01/16 10:51:11;;;;;;;4.78;2.13;;;5.70;1.00;;;;;;4997231;28;20034;-58
2024/01/16 10:53:41;;;;;;;4.28;2.08;;;5.80;1.00;;;;;;4997207;28;20596;-58
2024/01/16 10:56:12;;;;;;;5.60;1.85;;;6.60;1.00;;;;;;4997180;28;20085;-57
2024/01/16 10:58:41;;;;;;;5.03;1.90;;;6.10;99.90;;;;;;4996909;28;20038;-57
2024/01/16 11:01:16;;;;;;;6.72;2.25;;;5.80;87.20;;;;;;4997211;28;20022;-58
2024/01/16 11:03:49;;;;;;;5.35;1.77;;;4.90;1.00;;;;;;4997244;28;20058;-58
2024/01/16 11:06:18;;;;;;;3.45;1.52;;;4.90;1.00;;;;;;4997178;28;20313;-57
2024/01/16 11:08:48;;;;;;;6.35;1.77;;;4.70;1.00;;;;;;4997109;28;20294;-57
2024/01/16 11:11:15;;;;;;;5.32;2.13;;;5.00;99.90;;;;;;4996993;28;20026;-57
2024/01/16 11:13:46;;;;;;;3.38;1.80;;;5.10;1.00;;;;;;4996949;28;20034;-58
2024/01/16 11:16:12;;;;;;;4.28;1.75;;;5.60;1.00;;;;;;4996218;28;20073;-58
2024/01/16 11:18:38;;;;;;;3.17;2.10;;;6.00;99.90;;;;;;4996324;28;20023;-57
2024/01/16 11:21:08;;;;;;;4.07;1.98;;;6.20;1.00;;;;;;4997069;28;20022;-58
2024/01/16 11:23:35;;;;;;;6.03;2.22;;;5.20;1.00;;;;;;4997028;28;20022;-59
2024/01/16 11:26:39;;;;;;;5.70;1.90;;;4.80;99.90;;;;;;4996953;28;20034;-58
2024/01/16 11:29:27;;;;;;;4.88;2.13;;;4.80;1.00;;;;;;4997029;28;20045;-57
2024/01/16 11:31:56;;;;;;;3.70;1.95;;;4.30;1.00;;;;;;4999035;28;20042;-58
2024/01/16 11:34:55;;;;;;;4.38;1.88;;;4.10;1.00;;;;;;4999840;28;20069;-57
2024/01/16 11:37:42;;;;;;;5.50;2.47;;;4.10;99.90;;;;;;5000546;28;20027;-56
2024/01/16 11:40:19;;;;;;;5.78;2.05;;;3.70;1.00;;;;;;4983427;28;20035;-57
2024/01/16 11:42:45;;;;;;;7.72;2.40;;;3.70;99.90;;;;;;4999698;28;20275;-57
2024/01/16 11:45:29;;;;;;;5.45;2.42;;;4.00;1.00;;;;;;4999719;28;20037;-58
2024/01/16 11:48:14;;;;;;;5.63;2.17;;;3.90;61.20;;;;;;5000299;28;20117;-57
2024/01/16 11:50:41;;;;;;;6.57;2.58;;;4.00;1.00;;;;;;4999829;28;20054;-58
2024/01/16 11:53:07;;;;;;;5.07;1.95;;;3.70;99.90;;;;;;4999528;28;20030;-57
2024/01/16 11:56:00;;;;;;;4.55;2.22;;;3.60;99.90;;;;;;5000057;28;20041;-58
2024/01/16 11:58:25;;;;;;;5.03;2.15;;;3.60;1.00;;;;;;5000232;28;20058;-59
2024/01/16 12:00:53;;;;;;;5.40;2.38;;;4.00;99.90;;;;;;5000061;28;20050;-58
2024/01/16 12:03:21;;;;;;;6.43;2.78;;;3.90;99.90;;;;;;4999974;28;20375;-58
2024/01/16 12:06:00;;;;;;;5.10;2.65;;;4.10;1.00;;;;;;4999882;28;20042;-58
2024/01/16 12:08:26;;;;;;;4.72;2.00;;;4.20;1.00;;;;;;4999199;28;20418;-58
2024/01/16 12:10:52;;;;;;;4.15;2.67;;;3.90;99.90;;;;;;4999829;28;20092;-58
2024/01/16 12:13:18;;;;;;;4.47;2.45;;;3.80;99.90;;;;;;4999146;28;20329;-58
2024/01/16 12:15:45;;;;;;;6.10;2.50;;;3.60;1.00;;;;;;4999613;28;20109;-59
2024/01/16 12:18:18;;;;;;;5.43;2.72;;;3.60;1.00;;;;;;4999013;28;20310;-59
2024/01/16 12:20:44;;;;;;;6.82;2.75;;;3.70;99.90;;;;;;4999684;28;20030;-59
2024/01/16 12:23:10;;;;;;;5.20;2.75;;;3.90;99.90;;;;;;4998976;28;20038;-58
2024/01/16 12:25:37;;;;;;;5.75;2.55;;;4.00;1.00;;;;;;4998854;28;20049;-59
2024/01/16 12:28:05;;;;;;;5.22;2.70;;;4.00;1.00;;;;;;4999426;28;20030;-58
2024/01/16 12:30:36;;;;;;;5.53;2.45;;;4.00;1.00;;;;;;4999527;28;20022;-59
2024/01/16 12:33:09;;;;;;;8.15;2.67;;;3.90;1.00;;;;;;4999172;28;20066;-58
2024/01/16 12:35:44;;;;;;;5.35;2.30;;;4.10;99.90;;;;;;4998505;28;20038;-60
2024/01/16 12:38:12;;;;;;;4.95;2.08;;;4.10;1.00;;;;;;4999452;28;20113;-60
2024/01/16 12:40:43;;;;;;;4.93;2.28;;;4.00;99.90;;;;;;4999296;28;20038;-60
2024/01/16 12:43:09;;;;;;;5.38;2.30;;;4.20;1.00;;;;;;4998482;28;20023;-60
2024/01/16 12:45:35;;;;;;;6.13;2.17;;;4.30;1.00;;;;;;4998513;28;20033;-59
2024/01/16 12:48:04;;;;;;;3.85;2.15;;;4.20;1.60;;;;;;4999207;28;20056;-60
2024/01/16 12:50:31;;;;;;;6.47;2.22;;;4.30;1.00;;;;;;4998294;28;20483;-61
2024/01/16 12:53:02;;;;;;;6.35;2.22;;;4.60;99.90;;;;;;4999164;28;20101;-61
2024/01/16 12:55:28;;;;;;;3.47;1.95;;;4.80;1.00;;;;;;4998893;28;20066;-60
2024/01/16 12:58:17;;;;;;;5.10;1.80;;;4.90;99.90;;;;;;4998218;28;20050;-60
2024/01/16 13:00:48;;;;;;;3.22;1.77;;;5.00;1.00;;;;;;5014316;28;20116;-60